Terminal Aerodrome Forecast
Issued by NWS

Home | Current Version | Previous Version | Text Only | Print | Product List | Glossary On
Versions: 1 2 3 4 5 6 7 8 9 10 11 12 13 14 15 16 17 18 19 20 21 22 23 24 25 26 27 28
000
FTUS46 KSEW 271306 AAA
TAFSEA
TAF AMD
KSEA 271306Z 2713/2818 19008KT P6SM BKN015 OVC035
      TEMPO 2713/2716 SCT015 BKN045
     FM271800 23012KT P6SM SCT025 BKN035
     FM272300 28014KT P6SM -SHRA OVC030
     FM280100 34010KT P6SM VCSH OVC030
     FM280400 03008KT P6SM BKN030
     FM280800 17006KT P6SM OVC025
     FM281700 19007KT P6SM BKN035=

USA.gov is the U.S. government's official web portal to all federal, state and local government web resources and services.